createdAt,value
2023-03-12T00:02:25.297Z,2.67
2023-03-12T00:05:13.329Z,2.47
2023-03-12T00:08:01.150Z,3.17
2023-03-12T00:10:49.013Z,3.10
2023-03-12T00:13:38.670Z,3.07
2023-03-12T00:16:27.022Z,3.03
2023-03-12T00:19:15.050Z,3.33
2023-03-12T00:22:02.900Z,3.27
2023-03-12T00:24:52.068Z,3.30
2023-03-12T00:27:39.953Z,3.50
2023-03-12T00:30:29.535Z,4.03
2023-03-12T00:33:17.427Z,3.20
2023-03-12T00:36:06.018Z,3.50
2023-03-12T00:38:54.798Z,3.60
2023-03-12T00:41:42.609Z,3.80
2023-03-12T00:44:30.428Z,3.87
2023-03-12T00:47:19.531Z,4.07
2023-03-12T00:50:08.194Z,3.57
2023-03-12T00:52:56.217Z,3.50
2023-03-12T00:55:44.032Z,3.30
2023-03-12T00:58:31.958Z,3.60
2023-03-12T01:01:19.799Z,3.40
2023-03-12T01:04:09.441Z,3.30
2023-03-12T01:06:57.977Z,3.37
2023-03-12T01:09:45.771Z,3.03
2023-03-12T01:12:33.595Z,3.10
2023-03-12T01:15:21.391Z,3.73
2023-03-12T01:18:09.413Z,3.30
2023-03-12T01:20:59.290Z,2.93
2023-03-12T01:23:47.248Z,3.60
2023-03-12T01:26:35.129Z,3.37
2023-03-12T01:29:23.169Z,3.30
2023-03-12T01:32:11.047Z,3.40
2023-03-12T01:35:00.187Z,3.47
2023-03-12T01:37:49.283Z,3.47
2023-03-12T01:40:38.036Z,3.10
2023-03-12T01:43:29.561Z,3.17
2023-03-12T01:46:30.023Z,3.20
2023-03-12T01:49:20.991Z,3.23
2023-03-12T01:52:11.918Z,2.60
2023-03-12T01:55:05.871Z,2.90
2023-03-12T01:57:57.501Z,2.90
2023-03-12T02:00:46.320Z,3.30
2023-03-12T02:03:35.721Z,2.93
2023-03-12T02:06:29.897Z,2.93
2023-03-12T02:09:20.137Z,2.27
2023-03-12T02:12:10.981Z,2.50
2023-03-12T02:14:59.050Z,2.70
2023-03-12T02:17:47.249Z,2.20
2023-03-12T02:20:41.007Z,2.47
2023-03-12T02:23:35.156Z,2.73
2023-03-12T02:26:25.974Z,2.40
2023-03-12T02:29:14.105Z,2.10
2023-03-12T02:32:04.719Z,2.43
2023-03-12T02:34:52.687Z,2.50
2023-03-12T02:37:49.142Z,2.00
2023-03-12T02:40:42.809Z,2.03
2023-03-12T02:43:32.084Z,2.10
2023-03-12T02:46:20.363Z,2.00
2023-03-12T02:49:08.873Z,2.20
2023-03-12T02:51:56.740Z,1.97
2023-03-12T02:54:44.579Z,2.30
2023-03-12T02:57:32.673Z,2.53
2023-03-12T03:00:22.610Z,2.10
2023-03-12T03:03:10.410Z,2.30
2023-03-12T03:05:58.352Z,2.00
2023-03-12T03:08:46.182Z,2.40
2023-03-12T03:11:34.240Z,2.33
2023-03-12T03:14:23.190Z,2.70
2023-03-12T03:17:12.378Z,2.17
2023-03-12T03:20:00.271Z,2.50
2023-03-12T03:22:48.308Z,2.00
2023-03-12T03:25:36.134Z,3.13
2023-03-12T03:28:25.914Z,2.20
2023-03-12T03:31:13.977Z,2.40
2023-03-12T03:34:03.321Z,2.30
2023-03-12T03:36:51.215Z,2.63
2023-03-12T03:39:39.335Z,2.70
2023-03-12T03:42:27.765Z,2.30
2023-03-12T03:45:15.765Z,2.50
2023-03-12T03:48:03.608Z,2.70
2023-03-12T03:50:53.388Z,2.83
2023-03-12T03:53:41.184Z,2.57
2023-03-12T03:56:29.308Z,2.83
2023-03-12T03:59:17.121Z,2.80
2023-03-12T04:02:05.051Z,2.73
2023-03-12T04:04:52.993Z,2.80
2023-03-12T04:07:42.115Z,2.90
2023-03-12T04:10:30.437Z,2.87
2023-03-12T04:13:18.331Z,2.67
2023-03-12T04:16:06.781Z,3.00
2023-03-12T04:18:54.852Z,3.27
2023-03-12T04:21:42.649Z,2.67
2023-03-12T04:24:32.043Z,2.70
2023-03-12T04:27:20.088Z,2.80
2023-03-12T04:30:09.487Z,2.70
2023-03-12T04:32:57.333Z,2.70
2023-03-12T04:35:51.672Z,2.50
2023-03-12T04:38:39.529Z,2.40
2023-03-12T04:41:28.882Z,2.73
2023-03-12T04:44:16.951Z,2.70
2023-03-12T04:47:05.500Z,2.40
2023-03-12T04:49:53.427Z,3.07
2023-03-12T04:52:41.244Z,2.60
2023-03-12T04:55:29.107Z,2.70
2023-03-12T04:58:19.498Z,3.13
2023-03-12T05:01:07.447Z,2.60
2023-03-12T05:03:55.716Z,2.37
2023-03-12T05:06:43.541Z,2.80
2023-03-12T05:09:31.659Z,2.80
2023-03-12T05:12:19.475Z,2.87
2023-03-12T05:15:09.747Z,2.60
2023-03-12T05:17:57.703Z,2.83
2023-03-12T05:20:45.551Z,2.87
2023-03-12T05:23:34.283Z,3.17
2023-03-12T05:26:24.842Z,2.90
2023-03-12T05:29:12.718Z,3.00
2023-03-12T05:32:02.284Z,3.00
2023-03-12T05:34:50.139Z,2.53
2023-03-12T05:37:37.952Z,2.97
2023-03-12T05:40:25.818Z,2.97
2023-03-12T05:43:13.642Z,3.10
2023-03-12T05:46:03.764Z,2.80
2023-03-12T05:48:53.214Z,2.90
2023-03-12T05:51:41.809Z,2.60
2023-03-12T05:54:30.090Z,3.10
2023-03-12T05:57:17.921Z,3.10
2023-03-12T06:00:07.161Z,2.87
2023-03-12T06:02:55.054Z,3.10
2023-03-12T06:05:46.244Z,3.20
2023-03-12T06:08:34.062Z,2.83
2023-03-12T06:11:21.869Z,3.30
2023-03-12T06:14:09.748Z,2.80
2023-03-12T06:16:57.821Z,3.13
2023-03-12T06:19:45.789Z,3.17
2023-03-12T06:22:34.944Z,3.00
2023-03-12T06:25:22.761Z,2.73
2023-03-12T06:28:10.565Z,2.97
2023-03-12T06:30:58.442Z,3.00
2023-03-12T06:33:46.247Z,3.20
2023-03-12T06:36:34.174Z,3.47
2023-03-12T06:39:23.288Z,3.07
2023-03-12T06:42:12.901Z,3.10
2023-03-12T06:45:00.738Z,2.87
2023-03-12T06:47:48.596Z,3.20
2023-03-12T06:50:36.415Z,3.13
2023-03-12T06:53:27.814Z,3.43
2023-03-12T06:56:17.373Z,2.97
2023-03-12T06:59:05.517Z,3.33
2023-03-12T07:01:53.868Z,3.13
2023-03-12T07:04:41.748Z,3.20
2023-03-12T07:07:29.548Z,3.75
2023-03-12T07:10:17.853Z,3.80
2023-03-12T07:13:07.554Z,3.00
2023-03-12T07:15:55.453Z,3.47
2023-03-12T07:18:43.293Z,3.67
2023-03-12T07:21:31.691Z,3.20
2023-03-12T07:24:19.518Z,4.10
2023-03-12T07:27:07.385Z,3.77
2023-03-12T07:29:56.578Z,3.10
2023-03-12T07:32:44.624Z,3.47
2023-03-12T07:35:34.299Z,3.17
2023-03-12T07:38:22.320Z,4.17
2023-03-12T07:41:10.275Z,3.57
2023-03-12T07:43:58.198Z,3.57
2023-03-12T07:46:47.538Z,3.73
2023-03-12T07:49:35.413Z,4.03
2023-03-12T07:52:23.701Z,3.80
2023-03-12T07:55:12.486Z,3.40
2023-03-12T07:58:00.627Z,4.50
2023-03-12T08:00:49.028Z,3.57
2023-03-12T08:03:38.989Z,3.77
2023-03-12T08:06:27.365Z,4.03
2023-03-12T08:09:15.303Z,4.10
2023-03-12T08:12:03.232Z,3.73
2023-03-12T08:14:51.174Z,4.13
2023-03-12T08:17:39.134Z,4.20
2023-03-12T08:20:28.455Z,3.90
2023-03-12T08:23:16.429Z,4.10
2023-03-12T08:26:04.372Z,3.90
2023-03-12T08:28:52.218Z,3.93
2023-03-12T08:31:50.368Z,3.70
2023-03-12T08:34:45.706Z,3.90
2023-03-12T08:37:34.945Z,3.53
2023-03-12T08:40:23.413Z,4.00
2023-03-12T08:43:11.596Z,4.00
2023-03-12T08:46:01.509Z,4.17
2023-03-12T08:48:49.308Z,4.60
2023-03-12T08:51:37.165Z,4.70
2023-03-12T08:54:26.369Z,4.10
2023-03-12T08:57:15.589Z,4.40
2023-03-12T09:00:05.751Z,4.43
2023-03-12T09:02:54.288Z,5.00
2023-03-12T09:05:42.568Z,4.30
2023-03-12T09:08:30.552Z,4.00
2023-03-12T09:11:19.977Z,4.50
2023-03-12T09:14:57.437Z,4.70
2023-03-12T09:17:16.379Z,5.20
2023-03-12T09:20:08.171Z,4.53
2023-03-12T09:22:56.238Z,4.87
2023-03-12T09:25:46.526Z,4.93
2023-03-12T09:28:38.844Z,5.10
2023-03-12T09:31:27.580Z,4.70
2023-03-12T09:34:15.576Z,5.00
2023-03-12T09:37:03.621Z,5.40
2023-03-12T09:39:51.760Z,5.57
2023-03-12T09:42:47.346Z,5.17
2023-03-12T09:45:40.040Z,5.33
2023-03-12T09:48:33.852Z,5.23
2023-03-12T09:51:29.521Z,5.50
2023-03-12T09:54:25.623Z,5.93
2023-03-12T09:57:20.682Z,5.70
2023-03-12T10:00:13.748Z,5.57
2023-03-12T10:03:24.111Z,5.60
2023-03-12T10:06:15.568Z,5.50
2023-03-12T10:09:17.799Z,5.63
2023-03-12T10:12:19.462Z,5.67
2023-03-12T10:15:29.737Z,5.70
2023-03-12T10:18:31.819Z,5.43
2023-03-12T10:21:26.384Z,5.43
2023-03-12T10:24:37.933Z,5.57
2023-03-12T10:27:30.607Z,6.50
2023-03-12T10:30:23.267Z,6.67
2023-03-12T10:33:14.963Z,5.57
2023-03-12T10:36:11.844Z,6.77
2023-03-12T10:38:59.732Z,5.87
2023-03-12T10:41:49.402Z,6.43
2023-03-12T10:44:37.227Z,6.10
2023-03-12T10:47:33.759Z,6.10
2023-03-12T10:50:23.421Z,6.83
2023-03-12T10:53:22.638Z,6.63
2023-03-12T10:56:12.515Z,6.47
2023-03-12T10:59:00.747Z,7.10
2023-03-12T11:01:51.728Z,7.17
2023-03-12T11:04:39.655Z,6.67
2023-03-12T11:07:29.994Z,7.20
2023-03-12T11:10:28.150Z,6.93
2023-03-12T11:13:26.241Z,7.23
2023-03-12T11:16:31.916Z,7.43
2023-03-12T11:19:30.675Z,7.00
2023-03-12T11:22:30.165Z,7.13
2023-03-12T11:25:23.952Z,7.57
2023-03-12T11:28:23.347Z,7.67
2023-03-12T11:31:20.155Z,8.23
2023-03-12T11:34:15.896Z,7.10
2023-03-12T11:37:11.491Z,8.23
2023-03-12T11:40:18.072Z,7.10
2023-03-12T11:43:40.218Z,6.97
2023-03-12T11:46:41.430Z,7.37
2023-03-12T11:49:42.122Z,7.10
2023-03-12T11:52:39.758Z,7.03
2023-03-12T11:55:43.451Z,7.87
2023-03-12T11:58:42.274Z,6.87
2023-03-12T12:01:43.306Z,6.77
2023-03-12T12:04:56.873Z,6.70
2023-03-12T12:08:01.050Z,6.00
2023-03-12T12:11:00.023Z,6.67
2023-03-12T12:13:59.190Z,6.20
2023-03-12T12:17:01.305Z,6.10
2023-03-12T12:20:03.398Z,5.93
2023-03-12T12:23:02.310Z,5.70
2023-03-12T12:26:02.533Z,5.97
2023-03-12T12:29:01.234Z,6.47
2023-03-12T12:31:53.627Z,6.20
2023-03-12T12:34:57.893Z,6.07
2023-03-12T12:37:51.488Z,5.90
2023-03-12T12:40:42.525Z,6.23
2023-03-12T12:43:35.349Z,5.63
2023-03-12T12:46:29.097Z,5.83
2023-03-12T12:49:23.481Z,6.17
2023-03-12T12:52:14.365Z,6.90
2023-03-12T12:55:12.394Z,6.20
2023-03-12T12:58:05.789Z,5.97
2023-03-12T13:00:56.528Z,5.97
2023-03-12T13:03:46.994Z,6.13
2023-03-12T13:07:02.761Z,5.43
2023-03-12T13:09:52.761Z,5.83
2023-03-12T13:12:48.718Z,5.50
2023-03-12T13:15:40.058Z,5.57
2023-03-12T13:18:31.286Z,4.97
2023-03-12T13:21:26.491Z,5.00
2023-03-12T13:24:21.774Z,4.73
2023-03-12T13:27:17.974Z,4.70
2023-03-12T13:30:41.365Z,5.30
2023-03-12T13:33:45.190Z,5.90
2023-03-12T13:36:38.295Z,5.87
2023-03-12T13:39:32.131Z,5.37
2023-03-12T13:42:41.828Z,4.97
2023-03-12T13:45:31.909Z,5.80
2023-03-12T13:48:22.141Z,5.43
2023-03-12T13:51:16.696Z,5.20
2023-03-12T13:54:06.267Z,5.50
2023-03-12T13:57:00.837Z,5.37
2023-03-12T13:59:51.384Z,6.13
2023-03-12T14:02:45.133Z,4.97
2023-03-12T14:05:36.217Z,5.17
2023-03-12T14:08:53.661Z,5.40
2023-03-12T14:11:54.971Z,5.07
2023-03-12T14:14:59.310Z,4.90
2023-03-12T14:17:47.335Z,5.10
2023-03-12T14:20:39.537Z,4.90
2023-03-12T14:23:33.417Z,4.60
2023-03-12T14:26:25.926Z,4.50
2023-03-12T14:29:21.855Z,4.73
2023-03-12T14:32:17.056Z,3.90
2023-03-12T14:35:17.229Z,4.23
2023-03-12T14:38:07.360Z,4.30
2023-03-12T14:41:01.284Z,4.50
2023-03-12T14:43:53.030Z,4.30
2023-03-12T14:46:47.387Z,4.60
2023-03-12T14:49:41.541Z,4.60
2023-03-12T14:52:30.957Z,4.20
2023-03-12T14:55:22.669Z,4.50
2023-03-12T14:58:18.228Z,4.43
2023-03-12T15:01:08.346Z,4.67
2023-03-12T15:04:01.162Z,3.70
2023-03-12T15:06:51.874Z,4.30
2023-03-12T15:09:45.487Z,4.30
2023-03-12T15:12:36.761Z,4.20
2023-03-12T15:15:32.721Z,4.50
2023-03-12T15:18:23.637Z,4.17
2023-03-12T15:21:12.902Z,3.97
2023-03-12T15:24:01.012Z,4.50
2023-03-12T15:26:48.815Z,4.87
2023-03-12T15:29:42.037Z,5.13
2023-03-12T15:32:31.835Z,4.87
2023-03-12T15:35:27.214Z,4.60
2023-03-12T15:38:18.437Z,4.67
2023-03-12T15:41:10.302Z,5.30
2023-03-12T15:44:00.546Z,4.93
2023-03-12T15:46:50.314Z,5.67
2023-03-12T15:49:40.081Z,5.53
2023-03-12T15:52:32.208Z,5.53
2023-03-12T15:55:28.560Z,6.03
2023-03-12T15:58:27.446Z,5.67
2023-03-12T16:01:16.588Z,6.13
2023-03-12T16:04:06.439Z,5.60
2023-03-12T16:06:54.562Z,6.23
2023-03-12T16:09:43.278Z,6.77
2023-03-12T16:12:32.615Z,6.67
2023-03-12T16:15:27.283Z,6.77
2023-03-12T16:18:16.904Z,6.77
2023-03-12T16:21:05.197Z,7.87
2023-03-12T16:23:53.230Z,7.20
2023-03-12T16:26:48.979Z,6.87
2023-03-12T16:29:39.603Z,7.93
2023-03-12T16:32:27.592Z,7.43
2023-03-12T16:35:18.592Z,7.70
2023-03-12T16:38:07.187Z,7.60
2023-03-12T16:40:55.751Z,8.10
2023-03-12T16:43:46.648Z,8.53
2023-03-12T16:46:36.017Z,8.30
2023-03-12T16:49:23.893Z,7.90
2023-03-12T16:52:18.078Z,8.73
2023-03-12T16:55:06.594Z,8.83
2023-03-12T16:57:57.060Z,8.40
2023-03-12T17:00:45.839Z,9.10
2023-03-12T17:03:38.309Z,9.07
2023-03-12T17:06:27.324Z,8.80
2023-03-12T17:09:15.185Z,8.77
2023-03-12T17:12:04.309Z,8.60
2023-03-12T17:14:52.645Z,9.17
2023-03-12T17:17:40.425Z,10.63
2023-03-12T17:20:35.830Z,10.23
2023-03-12T17:23:24.588Z,9.53
2023-03-12T17:26:12.586Z,10.07
2023-03-12T17:29:00.566Z,9.77
2023-03-12T17:31:48.354Z,10.73
2023-03-12T17:34:36.254Z,10.63
2023-03-12T17:37:25.379Z,11.07
2023-03-12T17:40:14.129Z,10.37
2023-03-12T17:43:02.233Z,10.07
2023-03-12T17:45:50.518Z,10.60
2023-03-12T17:48:38.401Z,10.13
2023-03-12T17:51:26.484Z,11.20
2023-03-12T17:54:15.681Z,10.37
2023-03-12T17:57:03.510Z,11.10
2023-03-12T17:59:51.442Z,10.77
2023-03-12T18:02:39.840Z,11.17
2023-03-12T18:05:27.760Z,11.63
2023-03-12T18:08:16.464Z,11.50
2023-03-12T18:11:06.299Z,11.23
2023-03-12T18:13:54.224Z,11.70
2023-03-12T18:16:42.130Z,10.97
2023-03-12T18:19:30.599Z,10.50
2023-03-12T18:22:19.694Z,10.47
2023-03-12T18:25:08.922Z,10.97
2023-03-12T18:27:58.514Z,11.57
2023-03-12T18:30:46.968Z,11.37
2023-03-12T18:33:36.351Z,11.83
2023-03-12T18:36:24.221Z,10.57
2023-03-12T18:39:12.308Z,10.77
2023-03-12T18:42:00.152Z,10.80
2023-03-12T18:44:51.028Z,11.30
2023-03-12T18:47:39.969Z,11.10
2023-03-12T18:50:27.867Z,11.30
2023-03-12T18:53:15.704Z,11.53
2023-03-12T18:56:03.536Z,11.80
2023-03-12T18:58:51.355Z,11.90
2023-03-12T19:01:40.539Z,10.80
2023-03-12T19:04:28.514Z,11.73
2023-03-12T19:07:17.822Z,12.17
2023-03-12T19:10:06.927Z,10.67
2023-03-12T19:12:54.874Z,11.47
2023-03-12T19:15:43.488Z,11.60
2023-03-12T19:18:32.917Z,11.00
2023-03-12T19:21:20.757Z,10.90
2023-03-12T19:24:08.697Z,10.73
2023-03-12T19:26:56.530Z,10.63
2023-03-12T19:29:44.394Z,11.13
2023-03-12T19:32:42.574Z,11.37
2023-03-12T19:35:32.373Z,10.83
2023-03-12T19:38:20.424Z,10.67
2023-03-12T19:41:09.707Z,10.60
2023-03-12T19:43:57.542Z,11.23
2023-03-12T19:46:45.434Z,10.50
2023-03-12T19:49:33.532Z,11.37
2023-03-12T19:52:22.678Z,10.80
2023-03-12T19:55:11.887Z,10.87
2023-03-12T19:57:59.778Z,10.27
2023-03-12T20:00:49.483Z,10.70
2023-03-12T20:03:43.454Z,10.50
2023-03-12T20:06:31.524Z,10.77
2023-03-12T20:09:20.735Z,10.77
2023-03-12T20:12:08.720Z,10.70
2023-03-12T20:14:56.611Z,11.30
2023-03-12T20:17:44.425Z,10.70
2023-03-12T20:20:32.350Z,10.93
2023-03-12T20:23:20.239Z,10.23
2023-03-12T20:26:09.557Z,8.90
2023-03-12T20:28:57.382Z,9.60
2023-03-12T20:31:45.291Z,8.33
2023-03-12T20:34:33.261Z,7.57
2023-03-12T20:37:21.056Z,7.57
2023-03-12T20:40:10.113Z,7.03
2023-03-12T20:42:59.305Z,7.57
2023-03-12T20:45:49.813Z,7.10
2023-03-12T20:48:37.747Z,7.97
2023-03-12T20:51:25.735Z,7.30
2023-03-12T20:54:13.901Z,7.67
2023-03-12T20:57:01.697Z,7.53
2023-03-12T20:59:50.860Z,7.63
2023-03-12T21:02:38.712Z,7.50
2023-03-12T21:05:27.641Z,6.97
2023-03-12T21:08:15.829Z,7.30
2023-03-12T21:11:06.427Z,6.27
2023-03-12T21:13:54.652Z,6.40
2023-03-12T21:16:44.074Z,6.40
2023-03-12T21:19:32.242Z,6.47
2023-03-12T21:22:20.194Z,6.03
2023-03-12T21:25:08.799Z,6.80
2023-03-12T21:27:56.632Z,5.97
2023-03-12T21:30:44.526Z,5.57
2023-03-12T21:33:33.958Z,5.70
2023-03-12T21:36:21.830Z,5.70
2023-03-12T21:39:10.037Z,6.17
2023-03-12T21:41:57.950Z,5.73
2023-03-12T21:44:45.874Z,5.63
2023-03-12T21:47:37.075Z,6.23
2023-03-12T21:50:26.504Z,6.07
2023-03-12T21:53:23.332Z,5.80
2023-03-12T21:56:12.588Z,6.87
2023-03-12T21:59:00.429Z,5.80
2023-03-12T22:01:48.304Z,5.30
2023-03-12T22:04:36.132Z,5.37
2023-03-12T22:07:25.338Z,5.67
2023-03-12T22:10:13.266Z,5.53
2023-03-12T22:13:01.295Z,5.77
2023-03-12T22:15:54.742Z,5.53
2023-03-12T22:18:44.379Z,5.67
2023-03-12T22:21:32.249Z,4.80
2023-03-12T22:24:21.372Z,5.00
2023-03-12T22:27:09.188Z,5.87
2023-03-12T22:29:57.425Z,5.40
2023-03-12T22:32:45.288Z,5.17
2023-03-12T22:35:33.129Z,5.73
2023-03-12T22:38:21.449Z,5.43
2023-03-12T22:41:16.172Z,4.87
2023-03-12T22:44:06.545Z,5.10
2023-03-12T22:46:54.504Z,5.03
2023-03-12T22:49:42.358Z,4.90
2023-03-12T22:52:30.151Z,4.30
2023-03-12T22:55:18.113Z,5.23
2023-03-12T22:58:07.256Z,5.97
2023-03-12T23:01:00.264Z,5.27
2023-03-12T23:03:49.051Z,4.83
2023-03-12T23:06:36.874Z,5.30
2023-03-12T23:09:24.671Z,4.63
2023-03-12T23:12:12.503Z,5.27
2023-03-12T23:15:01.660Z,5.33
2023-03-12T23:17:49.508Z,5.33
2023-03-12T23:20:37.299Z,5.00
2023-03-12T23:23:25.238Z,6.03
2023-03-12T23:26:14.988Z,5.07
2023-03-12T23:29:02.966Z,4.93
2023-03-12T23:31:52.262Z,4.80
2023-03-12T23:34:40.177Z,5.27
2023-03-12T23:37:28.058Z,4.67
2023-03-12T23:40:16.883Z,4.53
2023-03-12T23:43:04.685Z,4.63
2023-03-12T23:45:57.197Z,4.43
2023-03-12T23:48:46.950Z,4.60
2023-03-12T23:51:35.192Z,4.57
2023-03-12T23:54:23.113Z,4.90
2023-03-12T23:57:10.972Z,5.50
2023-03-12T23:59:58.772Z,4.37
